Prudhoe Bay, Alaska
Current Conditions -  °F | °C
As of 10:53 PM on Monday 20 Oct 2014 (Local Time) from PASC Reporting Station
Overcast Overcast  
Wind Chill:   Ceiling: 1500
Heat Index: 25°   Visibility: 10mi
Dew Point: 20°   Wind: 36mph
Humidity: 81%   Direction: 70°ENE
Pressure: 29.72"   Gusts: 47mph
Location:  70.28°N, 148.38°W
Report Text: PASC 210653Z 07031G41KT 10SM OVC015 M04/M07 A2972 RMK AO2 PK WND 07043/0610 SLP064 T10391067
Loading
Personal Weather Stations






























Interactive Weather Map
Tropical Storm Tracking
New forecast layout! Learn more

10-Day Weather Forecast

Advertisements
Track Severe Weather on mobile